createdAt,value
2022-11-08T00:00:06.225Z,12.80
2022-11-08T00:02:52.621Z,12.80
2022-11-08T00:05:56.733Z,12.80
2022-11-08T00:09:01.400Z,12.80
2022-11-08T00:12:05.329Z,12.90
2022-11-08T00:14:51.540Z,12.80
2022-11-08T00:17:37.863Z,12.80
2022-11-08T00:20:24.386Z,12.90
2022-11-08T00:23:10.276Z,12.90
2022-11-08T00:25:55.788Z,12.90
2022-11-08T00:28:42.261Z,12.90
2022-11-08T00:31:27.835Z,12.90
2022-11-08T00:34:13.749Z,13.00
2022-11-08T00:36:59.753Z,13.00
2022-11-08T00:39:46.749Z,12.90
2022-11-08T00:42:32.886Z,12.80
2022-11-08T00:45:18.941Z,12.80
2022-11-08T00:48:04.628Z,12.80
2022-11-08T00:50:50.559Z,12.70
2022-11-08T00:53:40.800Z,12.70
2022-11-08T00:56:26.823Z,12.80
2022-11-08T00:59:16.946Z,12.80
2022-11-08T01:02:03.584Z,12.80
2022-11-08T01:04:49.083Z,12.80
2022-11-08T01:07:34.998Z,12.80
2022-11-08T01:10:20.922Z,12.70
2022-11-08T01:13:06.337Z,12.70
2022-11-08T01:15:52.263Z,12.70
2022-11-08T01:18:38.980Z,12.70
2022-11-08T01:21:26.929Z,12.80
2022-11-08T01:24:12.422Z,12.80
2022-11-08T01:26:58.389Z,12.70
2022-11-08T01:29:44.015Z,12.60
2022-11-08T01:32:29.808Z,12.60
2022-11-08T01:35:15.582Z,12.60
2022-11-08T01:38:01.988Z,12.50
2022-11-08T01:40:49.099Z,12.50
2022-11-08T01:43:41.093Z,12.50
2022-11-08T01:46:36.167Z,12.40
2022-11-08T01:49:45.987Z,12.60
2022-11-08T01:52:44.956Z,12.60
2022-11-08T01:55:36.239Z,12.60
2022-11-08T01:58:26.495Z,12.60
2022-11-08T02:01:13.467Z,12.60
2022-11-08T02:04:01.085Z,12.50
2022-11-08T02:06:46.842Z,12.50
2022-11-08T02:09:35.399Z,12.60
2022-11-08T02:12:22.783Z,12.60
2022-11-08T02:15:10.190Z,12.50
2022-11-08T02:17:55.967Z,12.60
2022-11-08T02:21:07.381Z,12.60
2022-11-08T02:23:59.449Z,12.60
2022-11-08T02:26:46.843Z,12.60
2022-11-08T02:29:36.504Z,12.60
2022-11-08T02:32:23.355Z,12.60
2022-11-08T02:35:17.759Z,12.60
2022-11-08T02:38:03.977Z,12.60
2022-11-08T02:40:52.745Z,12.60
2022-11-08T02:43:38.114Z,12.60
2022-11-08T02:46:23.916Z,12.60
2022-11-08T02:49:09.815Z,12.50
2022-11-08T02:51:56.273Z,12.60
2022-11-08T02:54:42.592Z,12.60
2022-11-08T02:57:28.327Z,12.70
2022-11-08T03:00:14.674Z,12.60
2022-11-08T03:03:00.293Z,12.60
2022-11-08T03:05:47.506Z,12.50
2022-11-08T03:08:33.796Z,12.50
2022-11-08T03:11:19.329Z,12.60
2022-11-08T03:14:05.184Z,12.50
2022-11-08T03:16:50.969Z,12.50
2022-11-08T03:19:36.365Z,12.60
2022-11-08T03:22:21.992Z,12.50
2022-11-08T03:25:07.978Z,12.50
2022-11-08T03:27:53.964Z,12.50
2022-11-08T03:30:40.668Z,12.50
2022-11-08T03:33:26.439Z,12.50
2022-11-08T03:36:12.427Z,12.50
2022-11-08T03:38:58.239Z,12.50
2022-11-08T03:41:44.039Z,12.40
2022-11-08T03:44:30.984Z,12.40
2022-11-08T03:47:16.680Z,12.40
2022-11-08T03:50:02.017Z,12.40
2022-11-08T03:52:50.692Z,12.40
2022-11-08T03:55:36.333Z,12.40
2022-11-08T03:58:21.834Z,12.30
2022-11-08T04:01:07.599Z,12.30
2022-11-08T04:03:53.925Z,12.40
2022-11-08T04:06:40.088Z,12.40
2022-11-08T04:09:25.981Z,12.30
2022-11-08T04:12:34.748Z,12.40
2022-11-08T04:15:22.492Z,12.30
2022-11-08T04:18:27.432Z,12.30
2022-11-08T04:21:22.311Z,12.20
2022-11-08T04:24:09.066Z,12.30
2022-11-08T04:26:54.736Z,12.20
2022-11-08T04:29:40.728Z,12.20
2022-11-08T04:32:26.872Z,12.10
2022-11-08T04:35:13.168Z,12.20
2022-11-08T04:38:00.948Z,12.20
2022-11-08T04:40:47.287Z,12.30
2022-11-08T04:43:34.272Z,12.20
2022-11-08T04:46:26.453Z,12.20
2022-11-08T04:49:12.115Z,12.20
2022-11-08T04:51:57.553Z,12.20
2022-11-08T04:54:46.484Z,12.20
2022-11-08T04:57:32.612Z,12.20
2022-11-08T05:00:18.987Z,12.20
2022-11-08T05:03:05.415Z,12.20
2022-11-08T05:05:51.668Z,12.30
2022-11-08T05:08:37.871Z,12.20
2022-11-08T05:11:25.151Z,12.20
2022-11-08T05:14:10.501Z,12.20
2022-11-08T05:16:56.557Z,12.20
2022-11-08T05:20:00.571Z,12.20
2022-11-08T05:23:05.415Z,12.10
2022-11-08T05:25:53.059Z,12.20
2022-11-08T05:28:40.439Z,12.20
2022-11-08T05:31:26.772Z,12.10
2022-11-08T05:34:12.820Z,12.20
2022-11-08T05:36:58.546Z,12.20
2022-11-08T05:39:44.543Z,12.20
2022-11-08T05:42:30.444Z,12.20
2022-11-08T05:45:16.680Z,12.30
2022-11-08T05:48:06.556Z,12.10
2022-11-08T05:50:52.889Z,12.20
2022-11-08T05:53:42.517Z,12.10
2022-11-08T05:56:28.508Z,12.10
2022-11-08T05:59:14.850Z,12.20
2022-11-08T06:02:01.607Z,12.20
2022-11-08T06:04:47.376Z,12.10
2022-11-08T06:07:32.817Z,12.20
2022-11-08T06:10:18.597Z,12.10
2022-11-08T06:13:04.425Z,12.10
2022-11-08T06:15:50.268Z,12.20
2022-11-08T06:18:36.452Z,12.20
2022-11-08T06:21:22.755Z,12.10
2022-11-08T06:24:09.130Z,12.10
2022-11-08T06:26:54.676Z,12.10
2022-11-08T06:29:42.353Z,12.10
2022-11-08T06:32:28.019Z,12.10
2022-11-08T06:35:14.431Z,12.10
2022-11-08T06:38:05.665Z,12.10
2022-11-08T06:40:54.856Z,12.20
2022-11-08T06:43:40.417Z,12.20
2022-11-08T06:46:26.181Z,12.30
2022-11-08T06:49:12.730Z,12.30
2022-11-08T06:51:59.045Z,12.40
2022-11-08T06:54:44.591Z,12.40
2022-11-08T06:57:30.147Z,12.40
2022-11-08T07:00:17.197Z,12.40
2022-11-08T07:03:04.239Z,12.40
2022-11-08T07:05:50.220Z,12.40
2022-11-08T07:08:36.333Z,12.40
2022-11-08T07:11:22.375Z,12.40
2022-11-08T07:14:07.892Z,12.40
2022-11-08T07:16:53.292Z,12.40
2022-11-08T07:19:39.225Z,12.40
2022-11-08T07:22:25.935Z,12.40
2022-11-08T07:25:11.965Z,12.30
2022-11-08T07:27:59.902Z,12.40
2022-11-08T07:30:47.804Z,12.40
2022-11-08T07:33:33.753Z,12.50
2022-11-08T07:36:19.185Z,12.40
2022-11-08T07:39:06.779Z,12.50
2022-11-08T07:41:52.772Z,12.50
2022-11-08T07:44:38.356Z,12.50
2022-11-08T07:47:23.767Z,12.60
2022-11-08T07:50:10.608Z,12.60
2022-11-08T07:52:56.792Z,12.70
2022-11-08T07:55:42.802Z,12.70
2022-11-08T07:58:28.248Z,12.70
2022-11-08T08:01:15.452Z,12.60
2022-11-08T08:04:01.485Z,12.60
2022-11-08T08:06:47.741Z,12.60
2022-11-08T08:09:36.696Z,12.70
2022-11-08T08:12:23.134Z,12.70
2022-11-08T08:15:10.284Z,12.70
2022-11-08T08:17:56.146Z,12.80
2022-11-08T08:20:41.980Z,12.90
2022-11-08T08:23:28.085Z,13.00
2022-11-08T08:26:14.564Z,13.00
2022-11-08T08:29:00.103Z,13.10
2022-11-08T08:31:45.976Z,13.10
2022-11-08T08:34:31.894Z,13.20
2022-11-08T08:37:17.503Z,13.20
2022-11-08T08:40:03.867Z,13.30
2022-11-08T08:42:59.540Z,13.30
2022-11-08T08:45:45.398Z,13.30
2022-11-08T08:48:31.896Z,13.40
2022-11-08T08:51:18.139Z,13.40
2022-11-08T08:54:03.998Z,13.60
2022-11-08T08:56:49.957Z,13.50
2022-11-08T09:02:42.925Z,13.60
2022-11-08T09:05:28.969Z,13.60
2022-11-08T09:08:15.130Z,13.70
2022-11-08T09:11:02.074Z,13.80
2022-11-08T09:13:48.272Z,13.70
2022-11-08T09:16:34.296Z,13.80
2022-11-08T09:19:20.556Z,13.90
2022-11-08T09:22:06.368Z,14.00
2022-11-08T09:24:52.874Z,14.10
2022-11-08T09:27:38.560Z,14.00
2022-11-08T09:30:24.307Z,14.10
2022-11-08T09:33:10.775Z,14.10
2022-11-08T09:35:58.440Z,14.10
2022-11-08T09:38:44.784Z,14.10
2022-11-08T09:41:39.525Z,14.20
2022-11-08T09:45:03.157Z,14.20
2022-11-08T09:47:55.875Z,14.20
2022-11-08T09:50:46.403Z,14.10
2022-11-08T09:53:47.742Z,14.10
2022-11-08T09:56:38.177Z,14.10
2022-11-08T09:59:42.791Z,14.30
2022-11-08T10:02:28.732Z,14.50
2022-11-08T10:05:17.868Z,14.40
2022-11-08T10:08:38.921Z,14.50
2022-11-08T10:11:30.677Z,14.60
2022-11-08T10:14:18.996Z,14.50
2022-11-08T10:17:25.026Z,14.50
2022-11-08T10:20:37.854Z,14.60
2022-11-08T10:23:36.683Z,14.70
2022-11-08T10:26:33.672Z,14.80
2022-11-08T10:29:43.426Z,15.00
2022-11-08T10:32:31.011Z,14.90
2022-11-08T10:35:41.848Z,15.10
2022-11-08T10:38:46.839Z,15.30
2022-11-08T10:41:44.661Z,15.40
2022-11-08T10:44:30.696Z,15.40
2022-11-08T10:47:28.913Z,15.50
2022-11-08T10:50:20.150Z,15.70
2022-11-08T10:53:11.924Z,15.70
2022-11-08T10:56:06.976Z,15.70
2022-11-08T10:58:52.532Z,15.70
2022-11-08T11:01:50.015Z,15.70
2022-11-08T11:04:35.709Z,15.90
2022-11-08T11:07:35.288Z,15.90
2022-11-08T11:10:28.951Z,15.90
2022-11-08T11:13:23.844Z,15.80
2022-11-08T11:16:14.554Z,16.10
2022-11-08T11:19:03.514Z,16.10
2022-11-08T11:22:08.805Z,16.10
2022-11-08T11:24:56.383Z,16.00
2022-11-08T11:27:43.357Z,16.00
2022-11-08T11:30:31.853Z,16.10
2022-11-08T11:33:26.412Z,16.20
2022-11-08T11:36:22.974Z,16.20
2022-11-08T11:39:16.240Z,16.30
2022-11-08T11:42:39.092Z,16.10
2022-11-08T11:45:24.472Z,16.00
2022-11-08T11:48:24.825Z,15.90
2022-11-08T11:51:11.632Z,15.90
2022-11-08T11:53:58.223Z,16.10
2022-11-08T11:56:55.649Z,16.00
2022-11-08T11:59:47.364Z,16.00
2022-11-08T12:03:09.521Z,16.10
2022-11-08T12:06:13.979Z,16.20
2022-11-08T12:09:32.612Z,16.70
2022-11-08T12:12:36.138Z,16.80
2022-11-08T12:15:46.483Z,16.80
2022-11-08T12:19:00.325Z,16.80
2022-11-08T12:22:04.757Z,16.70
2022-11-08T12:24:57.308Z,16.90
2022-11-08T12:27:49.871Z,16.80
2022-11-08T12:30:47.869Z,16.70
2022-11-08T12:33:48.521Z,16.80
2022-11-08T12:36:45.634Z,16.90
2022-11-08T12:39:53.986Z,17.00
2022-11-08T12:42:56.313Z,17.30
2022-11-08T12:46:00.652Z,17.30
2022-11-08T12:49:05.810Z,17.10
2022-11-08T12:52:11.935Z,17.20
2022-11-08T12:55:04.907Z,17.60
2022-11-08T12:57:57.431Z,17.80
2022-11-08T13:00:45.269Z,18.00
2022-11-08T13:03:44.068Z,18.20
2022-11-08T13:06:37.383Z,18.10
2022-11-08T13:09:37.783Z,18.40
2022-11-08T13:12:58.904Z,18.80
2022-11-08T13:16:15.350Z,18.90
2022-11-08T13:19:04.355Z,18.20
2022-11-08T13:21:51.765Z,17.70
2022-11-08T13:24:45.453Z,17.60
2022-11-08T13:27:49.982Z,17.70
2022-11-08T13:30:38.955Z,17.80
2022-11-08T13:33:30.474Z,17.80
2022-11-08T13:37:11.309Z,17.80
2022-11-08T13:40:12.951Z,18.20
2022-11-08T13:43:28.563Z,18.00
2022-11-08T13:46:20.168Z,17.90
2022-11-08T13:49:22.477Z,17.80
2022-11-08T13:53:01.482Z,18.10
2022-11-08T13:55:53.492Z,18.60
2022-11-08T13:58:41.832Z,21.10
2022-11-08T14:01:38.408Z,19.00
2022-11-08T14:04:38.607Z,18.30
2022-11-08T14:07:35.671Z,18.00
2022-11-08T14:10:48.695Z,17.90
2022-11-08T14:14:00.868Z,17.90
2022-11-08T14:17:09.578Z,18.20
2022-11-08T14:20:07.436Z,18.00
2022-11-08T14:22:53.377Z,17.70
2022-11-08T14:25:40.774Z,17.40
2022-11-08T14:28:28.849Z,17.70
2022-11-08T14:31:41.891Z,17.60
2022-11-08T14:34:36.841Z,17.60
2022-11-08T14:37:27.076Z,17.40
2022-11-08T14:40:31.385Z,17.30
2022-11-08T14:43:20.184Z,17.20
2022-11-08T14:46:15.674Z,17.10
2022-11-08T14:49:18.102Z,16.90
2022-11-08T14:52:07.721Z,16.90
2022-11-08T14:55:11.312Z,16.90
2022-11-08T14:57:56.709Z,16.90
2022-11-08T15:00:44.978Z,16.80
2022-11-08T15:03:32.251Z,16.80
2022-11-08T15:06:18.858Z,16.70
2022-11-08T15:09:05.814Z,16.70
2022-11-08T15:11:55.663Z,16.60
2022-11-08T15:14:57.498Z,16.60
2022-11-08T15:17:43.895Z,16.60
2022-11-08T15:20:29.763Z,16.50
2022-11-08T15:23:43.876Z,16.50
2022-11-08T15:26:35.193Z,16.50
2022-11-08T15:29:23.602Z,16.40
2022-11-08T15:32:19.089Z,16.30
2022-11-08T15:35:06.893Z,16.40
2022-11-08T15:38:00.238Z,16.30
2022-11-08T15:40:54.085Z,16.30
2022-11-08T15:43:41.477Z,16.30
2022-11-08T15:46:38.064Z,16.20
2022-11-08T15:49:25.982Z,16.20
2022-11-08T15:52:11.915Z,16.20
2022-11-08T15:54:57.542Z,16.20
2022-11-08T15:57:44.712Z,16.10
2022-11-08T16:00:33.736Z,16.10
2022-11-08T16:03:19.652Z,16.10
2022-11-08T16:06:05.714Z,16.10
2022-11-08T16:08:51.260Z,16.00
2022-11-08T16:11:38.552Z,16.00
2022-11-08T16:14:25.168Z,16.00
2022-11-08T16:17:14.047Z,16.10
2022-11-08T16:20:00.017Z,16.00
2022-11-08T16:22:46.101Z,16.00
2022-11-08T16:25:45.841Z,16.00
2022-11-08T16:28:39.798Z,15.90
2022-11-08T16:31:25.440Z,15.90
2022-11-08T16:34:11.474Z,15.80
2022-11-08T16:36:57.803Z,15.80
2022-11-08T16:39:43.932Z,15.80
2022-11-08T16:42:29.751Z,15.80
2022-11-08T16:45:17.578Z,15.80
2022-11-08T16:48:04.848Z,15.80
2022-11-08T16:50:52.016Z,15.70
2022-11-08T16:53:38.023Z,15.70
2022-11-08T16:56:23.983Z,15.70
2022-11-08T16:59:09.987Z,15.70
2022-11-08T17:01:55.974Z,15.70
2022-11-08T17:04:41.647Z,15.70
2022-11-08T17:07:28.651Z,15.60
2022-11-08T17:10:21.814Z,15.60
2022-11-08T17:13:07.963Z,15.60
2022-11-08T17:15:55.142Z,15.60
2022-11-08T17:18:41.213Z,15.60
2022-11-08T17:21:44.272Z,15.60
2022-11-08T17:24:31.066Z,15.60
2022-11-08T17:27:19.748Z,15.50
2022-11-08T17:30:06.329Z,15.50
2022-11-08T17:32:52.107Z,15.50
2022-11-08T17:35:42.574Z,15.50
2022-11-08T17:38:30.153Z,15.50
2022-11-08T17:41:16.196Z,15.50
2022-11-08T17:44:01.650Z,15.40
2022-11-08T17:46:48.101Z,15.50
2022-11-08T17:49:35.961Z,15.50
2022-11-08T17:52:24.286Z,15.50
2022-11-08T17:55:09.944Z,15.50
2022-11-08T17:57:55.632Z,15.40
2022-11-08T18:00:42.153Z,15.40
2022-11-08T18:03:28.303Z,15.40
2022-11-08T18:06:16.394Z,15.40
2022-11-08T18:09:02.862Z,15.40
2022-11-08T18:11:48.629Z,15.40
2022-11-08T18:14:35.720Z,15.40
2022-11-08T18:17:22.263Z,15.40
2022-11-08T18:20:09.151Z,15.40
2022-11-08T18:22:55.623Z,15.40
2022-11-08T18:25:42.689Z,15.40
2022-11-08T18:28:29.475Z,15.40
2022-11-08T18:31:18.132Z,15.40
2022-11-08T18:34:04.127Z,15.40
2022-11-08T18:36:50.509Z,15.40
2022-11-08T18:39:36.004Z,15.40
2022-11-08T18:42:22.102Z,15.40
2022-11-08T18:45:08.519Z,15.40
2022-11-08T18:47:54.359Z,15.30
2022-11-08T18:50:40.707Z,15.30
2022-11-08T18:53:26.656Z,15.30
2022-11-08T18:56:14.133Z,15.30
2022-11-08T18:59:00.869Z,15.20
2022-11-08T19:01:47.058Z,15.20
2022-11-08T19:04:33.155Z,15.20
2022-11-08T19:07:20.117Z,15.10
2022-11-08T19:10:06.472Z,15.20
2022-11-08T19:12:52.659Z,15.10
2022-11-08T19:15:38.541Z,15.10
2022-11-08T19:18:24.717Z,15.10
2022-11-08T19:21:14.628Z,15.10
2022-11-08T19:24:01.031Z,15.10
2022-11-08T19:26:46.667Z,15.20
2022-11-08T19:29:32.565Z,15.20
2022-11-08T19:32:18.599Z,15.20
2022-11-08T19:35:04.896Z,15.10
2022-11-08T19:37:50.815Z,15.10
2022-11-08T19:40:41.477Z,15.00
2022-11-08T19:43:27.541Z,15.10
2022-11-08T19:46:23.930Z,15.10
2022-11-08T19:49:10.041Z,15.10
2022-11-08T19:51:55.803Z,15.10
2022-11-08T19:54:41.787Z,15.20
2022-11-08T19:57:29.663Z,15.20
2022-11-08T20:00:17.696Z,15.10
2022-11-08T20:03:03.613Z,15.10
2022-11-08T20:05:54.009Z,15.10
2022-11-08T20:08:40.548Z,15.00
2022-11-08T20:11:29.720Z,15.00
2022-11-08T20:14:15.509Z,15.10
2022-11-08T20:17:01.228Z,15.10
2022-11-08T20:19:47.451Z,15.10
2022-11-08T20:22:33.701Z,15.20
2022-11-08T20:25:19.541Z,15.10
2022-11-08T20:28:05.737Z,15.10
2022-11-08T20:30:52.367Z,15.00
2022-11-08T20:33:39.774Z,15.00
2022-11-08T20:36:26.051Z,15.00
2022-11-08T20:39:14.079Z,15.00
2022-11-08T20:42:01.002Z,15.00
2022-11-08T20:44:47.058Z,15.00
2022-11-08T20:47:35.916Z,14.90
2022-11-08T20:50:22.013Z,14.90
2022-11-08T20:53:07.966Z,14.90
2022-11-08T20:56:02.941Z,14.90
2022-11-08T20:58:50.998Z,14.90
2022-11-08T21:01:37.987Z,14.90
2022-11-08T21:04:23.972Z,14.90
2022-11-08T21:10:43.609Z,14.90
2022-11-08T21:13:27.137Z,15.00
2022-11-08T21:16:29.164Z,15.00
2022-11-08T21:19:16.957Z,14.90
2022-11-08T21:22:15.462Z,14.90
2022-11-08T21:25:01.656Z,14.90
2022-11-08T21:27:47.750Z,14.90
2022-11-08T21:30:34.100Z,14.90
2022-11-08T21:33:20.136Z,14.90
2022-11-08T21:36:10.773Z,14.90
2022-11-08T21:38:57.212Z,14.90
2022-11-08T21:41:43.801Z,14.90
2022-11-08T21:44:29.143Z,14.90
2022-11-08T21:47:15.049Z,14.90
2022-11-08T21:50:01.026Z,14.90
2022-11-08T21:52:47.285Z,14.80
2022-11-08T21:55:34.018Z,14.80
2022-11-08T21:58:20.517Z,14.70
2022-11-08T22:01:07.687Z,14.80
2022-11-08T22:03:55.024Z,14.80
2022-11-08T22:06:46.417Z,14.80
2022-11-08T22:09:33.734Z,14.70
2022-11-08T22:12:19.385Z,14.70
2022-11-08T22:15:06.316Z,14.80
2022-11-08T22:21:16.833Z,14.80
2022-11-08T22:24:02.578Z,14.70
2022-11-08T22:26:49.803Z,14.70
2022-11-08T22:29:35.987Z,14.70
2022-11-08T22:32:22.179Z,14.70
2022-11-08T22:35:08.783Z,14.60
2022-11-08T22:37:54.440Z,14.60
2022-11-08T22:40:44.317Z,14.70
2022-11-08T22:43:29.796Z,14.80
2022-11-08T22:46:16.983Z,14.80
2022-11-08T22:49:03.859Z,14.80
2022-11-08T22:51:49.670Z,14.80
2022-11-08T22:54:35.164Z,14.70
2022-11-08T22:57:20.668Z,14.70
2022-11-08T23:00:10.015Z,14.70
2022-11-08T23:02:56.882Z,14.70
2022-11-08T23:05:48.008Z,14.70
2022-11-08T23:08:33.844Z,14.60
2022-11-08T23:11:37.901Z,14.60
2022-11-08T23:14:43.617Z,14.60
2022-11-08T23:17:29.085Z,14.60
2022-11-08T23:20:33.404Z,14.70
2022-11-08T23:23:37.461Z,14.70
2022-11-08T23:26:43.106Z,14.70
2022-11-08T23:29:47.774Z,14.70
2022-11-08T23:32:34.698Z,14.70
2022-11-08T23:35:21.805Z,14.70
2022-11-08T23:38:07.958Z,14.60
2022-11-08T23:41:12.612Z,14.60
2022-11-08T23:44:17.264Z,14.60
2022-11-08T23:47:03.237Z,14.60
2022-11-08T23:49:48.680Z,14.60
2022-11-08T23:52:34.627Z,14.60
2022-11-08T23:55:20.373Z,14.50
2022-11-08T23:58:05.780Z,14.60
